sensor_id;sensor_type;location;lat;lon;timestamp;temperature;humidity
68719;DHT22;55696;52.138;5.444;2023-02-28T00:00:31;5.80;71.00
68719;DHT22;55696;52.138;5.444;2023-02-28T00:02:58;5.80;70.20
68719;DHT22;55696;52.138;5.444;2023-02-28T00:05:26;5.80;70.00
68719;DHT22;55696;52.138;5.444;2023-02-28T00:07:54;5.80;71.00
68719;DHT22;55696;52.138;5.444;2023-02-28T00:10:24;5.80;70.10
68719;DHT22;55696;52.138;5.444;2023-02-28T00:12:52;5.80;71.00
68719;DHT22;55696;52.138;5.444;2023-02-28T00:15:20;5.70;70.30
68719;DHT22;55696;52.138;5.444;2023-02-28T00:17:47;5.60;70.30
68719;DHT22;55696;52.138;5.444;2023-02-28T00:20:14;5.70;69.60
68719;DHT22;55696;52.138;5.444;2023-02-28T00:22:45;5.80;69.80
68719;DHT22;55696;52.138;5.444;2023-02-28T00:25:14;5.90;70.80
68719;DHT22;55696;52.138;5.444;2023-02-28T00:27:42;6.00;70.70
68719;DHT22;55696;52.138;5.444;2023-02-28T00:30:15;6.10;69.90
68719;DHT22;55696;52.138;5.444;2023-02-28T00:32:42;6.10;70.30
68719;DHT22;55696;52.138;5.444;2023-02-28T00:35:09;6.10;69.40
68719;DHT22;55696;52.138;5.444;2023-02-28T00:37:37;6.10;70.20
68719;DHT22;55696;52.138;5.444;2023-02-28T00:40:05;6.10;69.40
68719;DHT22;55696;52.138;5.444;2023-02-28T00:42:33;6.20;70.00
68719;DHT22;55696;52.138;5.444;2023-02-28T00:45:00;6.20;70.10
68719;DHT22;55696;52.138;5.444;2023-02-28T00:47:27;6.30;69.40
68719;DHT22;55696;52.138;5.444;2023-02-28T00:49:54;6.30;69.00
68719;DHT22;55696;52.138;5.444;2023-02-28T00:52:21;6.30;69.10
68719;DHT22;55696;52.138;5.444;2023-02-28T00:54:48;6.30;69.20
68719;DHT22;55696;52.138;5.444;2023-02-28T00:57:15;6.40;69.50
68719;DHT22;55696;52.138;5.444;2023-02-28T00:59:41;6.40;69.00
68719;DHT22;55696;52.138;5.444;2023-02-28T01:02:08;6.50;69.30
68719;DHT22;55696;52.138;5.444;2023-02-28T01:04:36;6.50;69.20
68719;DHT22;55696;52.138;5.444;2023-02-28T01:07:03;7.50;69.50
68719;DHT22;55696;52.138;5.444;2023-02-28T01:09:30;6.50;69.30
68719;DHT22;55696;52.138;5.444;2023-02-28T01:11:57;6.50;69.20
68719;DHT22;55696;52.138;5.444;2023-02-28T01:14:24;6.60;69.10
68719;DHT22;55696;52.138;5.444;2023-02-28T01:16:51;6.60;69.00
68719;DHT22;55696;52.138;5.444;2023-02-28T01:19:18;7.50;69.50
68719;DHT22;55696;52.138;5.444;2023-02-28T01:21:45;6.70;69.10
68719;DHT22;55696;52.138;5.444;2023-02-28T01:24:12;6.70;69.00
68719;DHT22;55696;52.138;5.444;2023-02-28T01:26:39;6.70;68.80
68719;DHT22;55696;52.138;5.444;2023-02-28T01:29:06;6.70;69.00
68719;DHT22;55696;52.138;5.444;2023-02-28T01:31:33;6.70;69.00
68719;DHT22;55696;52.138;5.444;2023-02-28T01:34:00;6.70;68.90
68719;DHT22;55696;52.138;5.444;2023-02-28T01:36:28;6.70;68.70
68719;DHT22;55696;52.138;5.444;2023-02-28T01:38:55;6.80;68.90
68719;DHT22;55696;52.138;5.444;2023-02-28T01:41:23;6.70;68.90
68719;DHT22;55696;52.138;5.444;2023-02-28T01:46:17;6.70;68.80
68719;DHT22;55696;52.138;5.444;2023-02-28T01:48:51;6.70;69.10
68719;DHT22;55696;52.138;5.444;2023-02-28T01:51:24;6.70;71.20
68719;DHT22;55696;52.138;5.444;2023-02-28T01:53:58;6.70;71.10
68719;DHT22;55696;52.138;5.444;2023-02-28T01:56:31;6.60;71.00
68719;DHT22;55696;52.138;5.444;2023-02-28T01:58:59;6.60;71.30
68719;DHT22;55696;52.138;5.444;2023-02-28T02:01:27;6.50;69.70
68719;DHT22;55696;52.138;5.444;2023-02-28T02:03:57;6.60;70.60
68719;DHT22;55696;52.138;5.444;2023-02-28T02:06:37;6.60;70.90
68719;DHT22;55696;52.138;5.444;2023-02-28T02:09:08;6.60;70.90
68719;DHT22;55696;52.138;5.444;2023-02-28T02:11:37;6.50;69.90
68719;DHT22;55696;52.138;5.444;2023-02-28T02:25:26;6.60;71.80
68719;DHT22;55696;52.138;5.444;2023-02-28T02:45:27;6.80;71.30
68719;DHT22;55696;52.138;5.444;2023-02-28T02:47:57;6.90;71.90
68719;DHT22;55696;52.138;5.444;2023-02-28T02:50:31;6.90;71.20
68719;DHT22;55696;52.138;5.444;2023-02-28T02:53:01;7.10;71.40
68719;DHT22;55696;52.138;5.444;2023-02-28T02:55:32;7.10;70.70
68719;DHT22;55696;52.138;5.444;2023-02-28T02:58:14;7.00;70.60
68719;DHT22;55696;52.138;5.444;2023-02-28T03:00:46;7.10;70.90
68719;DHT22;55696;52.138;5.444;2023-02-28T03:03:14;7.00;70.80
68719;DHT22;55696;52.138;5.444;2023-02-28T03:05:49;7.00;70.00
68719;DHT22;55696;52.138;5.444;2023-02-28T03:08:16;7.00;71.30
68719;DHT22;55696;52.138;5.444;2023-02-28T03:10:47;7.10;70.10
68719;DHT22;55696;52.138;5.444;2023-02-28T03:21:47;7.10;72.90
68719;DHT22;55696;52.138;5.444;2023-02-28T03:27:16;7.20;69.30
68719;DHT22;55696;52.138;5.444;2023-02-28T03:29:58;7.20;71.50
68719;DHT22;55696;52.138;5.444;2023-02-28T03:32:35;7.20;71.50
68719;DHT22;55696;52.138;5.444;2023-02-28T03:35:11;7.20;71.80
68719;DHT22;55696;52.138;5.444;2023-02-28T03:37:42;7.20;71.80
68719;DHT22;55696;52.138;5.444;2023-02-28T03:40:15;7.20;71.00
68719;DHT22;55696;52.138;5.444;2023-02-28T03:42:47;7.90;72.20
68719;DHT22;55696;52.138;5.444;2023-02-28T03:45:26;7.20;71.60
68719;DHT22;55696;52.138;5.444;2023-02-28T03:50:54;7.10;72.30
68719;DHT22;55696;52.138;5.444;2023-02-28T03:55:59;7.00;71.90
68719;DHT22;55696;52.138;5.444;2023-02-28T04:01:39;7.00;72.10
68719;DHT22;55696;52.138;5.444;2023-02-28T04:04:09;7.10;72.00
68719;DHT22;55696;52.138;5.444;2023-02-28T04:06:36;8.20;71.60
68719;DHT22;55696;52.138;5.444;2023-02-28T04:09:05;7.20;70.00
68719;DHT22;55696;52.138;5.444;2023-02-28T04:14:05;7.10;72.50
68719;DHT22;55696;52.138;5.444;2023-02-28T04:16:34;7.10;70.60
68719;DHT22;55696;52.138;5.444;2023-02-28T04:19:06;7.10;69.80
68719;DHT22;55696;52.138;5.444;2023-02-28T04:21:35;7.20;70.70
68719;DHT22;55696;52.138;5.444;2023-02-28T04:24:03;7.10;69.90
68719;DHT22;55696;52.138;5.444;2023-02-28T04:26:35;7.10;69.30
68719;DHT22;55696;52.138;5.444;2023-02-28T04:29:04;7.10;69.80
68719;DHT22;55696;52.138;5.444;2023-02-28T04:31:31;7.00;68.90
68719;DHT22;55696;52.138;5.444;2023-02-28T04:33:59;7.10;68.00
68719;DHT22;55696;52.138;5.444;2023-02-28T04:36:26;7.10;67.70
68719;DHT22;55696;52.138;5.444;2023-02-28T04:38:54;7.10;67.40
68719;DHT22;55696;52.138;5.444;2023-02-28T04:41:21;7.00;67.10
68719;DHT22;55696;52.138;5.444;2023-02-28T04:43:48;7.00;67.10
68719;DHT22;55696;52.138;5.444;2023-02-28T04:46:14;7.00;66.90
68719;DHT22;55696;52.138;5.444;2023-02-28T04:48:41;7.10;66.80
68719;DHT22;55696;52.138;5.444;2023-02-28T04:51:12;7.00;66.10
68719;DHT22;55696;52.138;5.444;2023-02-28T04:53:41;7.00;67.50
68719;DHT22;55696;52.138;5.444;2023-02-28T04:56:11;6.90;67.00
68719;DHT22;55696;52.138;5.444;2023-02-28T04:58:38;6.80;67.60
68719;DHT22;55696;52.138;5.444;2023-02-28T05:01:27;6.70;66.10
68719;DHT22;55696;52.138;5.444;2023-02-28T05:03:59;6.60;68.30
68719;DHT22;55696;52.138;5.444;2023-02-28T05:06:29;6.70;67.30
68719;DHT22;55696;52.138;5.444;2023-02-28T05:08:56;6.50;67.30
68719;DHT22;55696;52.138;5.444;2023-02-28T05:11:26;6.50;66.60
68719;DHT22;55696;52.138;5.444;2023-02-28T05:13:56;6.40;68.20
68719;DHT22;55696;52.138;5.444;2023-02-28T05:16:22;6.40;67.30
68719;DHT22;55696;52.138;5.444;2023-02-28T05:18:49;6.30;67.40
68719;DHT22;55696;52.138;5.444;2023-02-28T05:21:24;6.40;67.50
68719;DHT22;55696;52.138;5.444;2023-02-28T05:23:52;6.30;69.00
68719;DHT22;55696;52.138;5.444;2023-02-28T05:26:19;6.20;68.10
68719;DHT22;55696;52.138;5.444;2023-02-28T05:28:46;6.40;68.60
68719;DHT22;55696;52.138;5.444;2023-02-28T05:31:13;6.20;67.60
68719;DHT22;55696;52.138;5.444;2023-02-28T05:33:40;6.40;68.60
68719;DHT22;55696;52.138;5.444;2023-02-28T05:36:07;6.40;68.20
68719;DHT22;55696;52.138;5.444;2023-02-28T05:38:34;6.40;68.70
68719;DHT22;55696;52.138;5.444;2023-02-28T05:41:10;6.40;68.30
68719;DHT22;55696;52.138;5.444;2023-02-28T05:43:37;6.30;70.50
68719;DHT22;55696;52.138;5.444;2023-02-28T05:46:06;6.30;68.70
68719;DHT22;55696;52.138;5.444;2023-02-28T05:48:35;6.30;70.00
68719;DHT22;55696;52.138;5.444;2023-02-28T05:51:03;6.30;70.20
68719;DHT22;55696;52.138;5.444;2023-02-28T05:53:31;6.30;69.90
68719;DHT22;55696;52.138;5.444;2023-02-28T05:55:58;6.20;69.40
68719;DHT22;55696;52.138;5.444;2023-02-28T05:58:25;6.20;69.00
68719;DHT22;55696;52.138;5.444;2023-02-28T06:00:56;6.00;68.90
68719;DHT22;55696;52.138;5.444;2023-02-28T06:03:23;6.10;69.20
68719;DHT22;55696;52.138;5.444;2023-02-28T06:05:49;5.90;69.70
68719;DHT22;55696;52.138;5.444;2023-02-28T06:08:17;6.00;69.70
68719;DHT22;55696;52.138;5.444;2023-02-28T06:10:43;6.00;69.90
68719;DHT22;55696;52.138;5.444;2023-02-28T06:13:11;5.90;70.10
68719;DHT22;55696;52.138;5.444;2023-02-28T06:15:39;6.10;70.20
68719;DHT22;55696;52.138;5.444;2023-02-28T06:18:07;6.90;70.90
68719;DHT22;55696;52.138;5.444;2023-02-28T06:20:34;6.00;70.20
68719;DHT22;55696;52.138;5.444;2023-02-28T06:23:02;6.00;70.40
68719;DHT22;55696;52.138;5.444;2023-02-28T06:25:29;5.90;70.40
68719;DHT22;55696;52.138;5.444;2023-02-28T06:27:56;5.90;70.80
68719;DHT22;55696;52.138;5.444;2023-02-28T06:30:23;5.90;71.40
68719;DHT22;55696;52.138;5.444;2023-02-28T06:32:54;5.90;71.10
68719;DHT22;55696;52.138;5.444;2023-02-28T06:35:21;5.80;72.10
68719;DHT22;55696;52.138;5.444;2023-02-28T06:37:48;5.60;71.60
68719;DHT22;55696;52.138;5.444;2023-02-28T06:40:15;5.60;71.70
68719;DHT22;55696;52.138;5.444;2023-02-28T06:42:42;5.60;72.00
68719;DHT22;55696;52.138;5.444;2023-02-28T06:45:10;5.50;72.20
68719;DHT22;55696;52.138;5.444;2023-02-28T06:47:39;5.50;73.40
68719;DHT22;55696;52.138;5.444;2023-02-28T06:50:08;5.60;73.60
68719;DHT22;55696;52.138;5.444;2023-02-28T06:52:35;5.60;73.50
68719;DHT22;55696;52.138;5.444;2023-02-28T06:55:06;5.70;72.40
68719;DHT22;55696;52.138;5.444;2023-02-28T06:57:35;5.70;73.40
68719;DHT22;55696;52.138;5.444;2023-02-28T07:00:06;5.70;73.80
68719;DHT22;55696;52.138;5.444;2023-02-28T07:02:35;5.70;74.20
68719;DHT22;55696;52.138;5.444;2023-02-28T07:05:03;5.70;73.50
68719;DHT22;55696;52.138;5.444;2023-02-28T07:07:30;5.70;73.10
68719;DHT22;55696;52.138;5.444;2023-02-28T07:09:56;5.70;72.50
68719;DHT22;55696;52.138;5.444;2023-02-28T07:12:23;5.70;72.60
68719;DHT22;55696;52.138;5.444;2023-02-28T07:14:50;5.80;72.80
68719;DHT22;55696;52.138;5.444;2023-02-28T07:17:17;5.80;72.50
68719;DHT22;55696;52.138;5.444;2023-02-28T07:19:44;5.80;72.40
68719;DHT22;55696;52.138;5.444;2023-02-28T07:22:10;5.90;72.60
68719;DHT22;55696;52.138;5.444;2023-02-28T07:24:40;5.90;72.40
68719;DHT22;55696;52.138;5.444;2023-02-28T07:27:07;6.00;72.20
68719;DHT22;55696;52.138;5.444;2023-02-28T07:29:33;6.00;72.30
68719;DHT22;55696;52.138;5.444;2023-02-28T07:32:00;6.00;72.50
68719;DHT22;55696;52.138;5.444;2023-02-28T07:34:27;6.10;72.50
68719;DHT22;55696;52.138;5.444;2023-02-28T07:36:55;6.20;72.20
68719;DHT22;55696;52.138;5.444;2023-02-28T07:39:22;6.20;72.40
68719;DHT22;55696;52.138;5.444;2023-02-28T07:41:49;6.30;72.50
68719;DHT22;55696;52.138;5.444;2023-02-28T07:44:15;6.40;72.00
68719;DHT22;55696;52.138;5.444;2023-02-28T07:46:42;6.40;71.60
68719;DHT22;55696;52.138;5.444;2023-02-28T07:49:09;6.50;71.50
68719;DHT22;55696;52.138;5.444;2023-02-28T07:51:36;6.50;71.60
68719;DHT22;55696;52.138;5.444;2023-02-28T07:54:03;6.60;71.50
68719;DHT22;55696;52.138;5.444;2023-02-28T07:56:30;6.70;71.50
68719;DHT22;55696;52.138;5.444;2023-02-28T07:58:57;6.80;71.50
68719;DHT22;55696;52.138;5.444;2023-02-28T08:01:24;6.80;71.20
68719;DHT22;55696;52.138;5.444;2023-02-28T08:03:51;6.90;71.40
68719;DHT22;55696;52.138;5.444;2023-02-28T08:06:21;6.90;71.20
68719;DHT22;55696;52.138;5.444;2023-02-28T08:08:49;7.00;72.60
68719;DHT22;55696;52.138;5.444;2023-02-28T08:11:16;7.10;71.60
68719;DHT22;55696;52.138;5.444;2023-02-28T08:13:44;7.10;71.60
68719;DHT22;55696;52.138;5.444;2023-02-28T08:16:12;7.30;70.90
68719;DHT22;55696;52.138;5.444;2023-02-28T08:18:44;7.30;71.50
68719;DHT22;55696;52.138;5.444;2023-02-28T08:21:11;7.40;69.90
68719;DHT22;55696;52.138;5.444;2023-02-28T08:23:38;7.30;70.00
68719;DHT22;55696;52.138;5.444;2023-02-28T08:26:05;7.40;70.30
68719;DHT22;55696;52.138;5.444;2023-02-28T08:28:32;7.50;70.10
68719;DHT22;55696;52.138;5.444;2023-02-28T08:30:59;7.50;69.90
68719;DHT22;55696;52.138;5.444;2023-02-28T08:33:27;7.60;70.10
68719;DHT22;55696;52.138;5.444;2023-02-28T08:35:57;7.60;70.20
68719;DHT22;55696;52.138;5.444;2023-02-28T08:38:24;7.60;70.80
68719;DHT22;55696;52.138;5.444;2023-02-28T08:41:00;7.60;69.30
68719;DHT22;55696;52.138;5.444;2023-02-28T08:43:28;7.60;70.60
68719;DHT22;55696;52.138;5.444;2023-02-28T08:45:55;7.80;69.00
68719;DHT22;55696;52.138;5.444;2023-02-28T08:48:24;7.80;68.90
68719;DHT22;55696;52.138;5.444;2023-02-28T08:51:17;7.90;68.40
68719;DHT22;55696;52.138;5.444;2023-02-28T08:53:48;7.90;69.30
68719;DHT22;55696;52.138;5.444;2023-02-28T08:56:17;8.00;66.20
68719;DHT22;55696;52.138;5.444;2023-02-28T08:58:46;8.00;66.10
68719;DHT22;55696;52.138;5.444;2023-02-28T09:03:43;7.90;66.60
68719;DHT22;55696;52.138;5.444;2023-02-28T09:06:10;8.00;65.30
68719;DHT22;55696;52.138;5.444;2023-02-28T09:08:38;7.90;64.70
68719;DHT22;55696;52.138;5.444;2023-02-28T09:11:06;8.10;64.90
68719;DHT22;55696;52.138;5.444;2023-02-28T09:13:34;8.20;64.10
68719;DHT22;55696;52.138;5.444;2023-02-28T09:16:03;8.50;64.10
68719;DHT22;55696;52.138;5.444;2023-02-28T09:18:30;8.80;63.70
68719;DHT22;55696;52.138;5.444;2023-02-28T09:20:57;10.00;61.40
68719;DHT22;55696;52.138;5.444;2023-02-28T09:23:24;9.20;59.50
68719;DHT22;55696;52.138;5.444;2023-02-28T09:25:53;9.30;59.20
68719;DHT22;55696;52.138;5.444;2023-02-28T09:28:21;9.30;59.20
68719;DHT22;55696;52.138;5.444;2023-02-28T09:30:50;9.20;57.50
68719;DHT22;55696;52.138;5.444;2023-02-28T09:33:18;9.30;57.50
68719;DHT22;55696;52.138;5.444;2023-02-28T09:35:48;9.10;55.80
68719;DHT22;55696;52.138;5.444;2023-02-28T09:38:17;8.90;55.80
68719;DHT22;55696;52.138;5.444;2023-02-28T09:41:01;9.00;56.40
68719;DHT22;55696;52.138;5.444;2023-02-28T09:43:37;8.90;56.50
68719;DHT22;55696;52.138;5.444;2023-02-28T09:46:28;8.90;56.00
68719;DHT22;55696;52.138;5.444;2023-02-28T09:48:56;8.80;55.20
68719;DHT22;55696;52.138;5.444;2023-02-28T09:54:16;8.70;55.90
68719;DHT22;55696;52.138;5.444;2023-02-28T09:56:53;8.90;55.40
68719;DHT22;55696;52.138;5.444;2023-02-28T10:05:07;9.60;53.50
68719;DHT22;55696;52.138;5.444;2023-02-28T10:10:26;9.90;52.50
68719;DHT22;55696;52.138;5.444;2023-02-28T10:12:57;10.00;50.20
68719;DHT22;55696;52.138;5.444;2023-02-28T10:15:27;11.00;51.90
68719;DHT22;55696;52.138;5.444;2023-02-28T10:18:05;10.20;50.70
68719;DHT22;55696;52.138;5.444;2023-02-28T10:20:38;10.40;51.00
68719;DHT22;55696;52.138;5.444;2023-02-28T10:26:13;10.60;49.40
68719;DHT22;55696;52.138;5.444;2023-02-28T10:28:40;10.70;48.60
68719;DHT22;55696;52.138;5.444;2023-02-28T10:31:15;10.80;46.90
68719;DHT22;55696;52.138;5.444;2023-02-28T10:33:44;10.70;48.40
68719;DHT22;55696;52.138;5.444;2023-02-28T10:36:15;10.70;47.00
68719;DHT22;55696;52.138;5.444;2023-02-28T10:38:44;10.70;48.20
68719;DHT22;55696;52.138;5.444;2023-02-28T10:41:16;10.50;47.30
68719;DHT22;55696;52.138;5.444;2023-02-28T10:43:46;11.30;48.10
68719;DHT22;55696;52.138;5.444;2023-02-28T10:46:16;10.30;46.10
68719;DHT22;55696;52.138;5.444;2023-02-28T10:49:11;10.30;47.90
68719;DHT22;55696;52.138;5.444;2023-02-28T10:51:40;10.10;48.90
68719;DHT22;55696;52.138;5.444;2023-02-28T10:54:33;10.10;47.90
68719;DHT22;55696;52.138;5.444;2023-02-28T10:57:23;10.10;47.80
68719;DHT22;55696;52.138;5.444;2023-02-28T11:00:13;9.80;48.70
68719;DHT22;55696;52.138;5.444;2023-02-28T11:02:40;9.80;48.30
68719;DHT22;55696;52.138;5.444;2023-02-28T11:05:30;9.90;46.30
68719;DHT22;55696;52.138;5.444;2023-02-28T11:08:14;9.90;49.10
68719;DHT22;55696;52.138;5.444;2023-02-28T11:10:46;10.10;49.10
68719;DHT22;55696;52.138;5.444;2023-02-28T11:13:24;9.90;48.40
68719;DHT22;55696;52.138;5.444;2023-02-28T11:15:56;9.90;49.70
68719;DHT22;55696;52.138;5.444;2023-02-28T11:18:30;11.90;49.30
68719;DHT22;55696;52.138;5.444;2023-02-28T11:21:01;10.20;47.80
68719;DHT22;55696;52.138;5.444;2023-02-28T11:23:30;10.20;46.90
68719;DHT22;55696;52.138;5.444;2023-02-28T11:26:01;10.10;46.80
68719;DHT22;55696;52.138;5.444;2023-02-28T11:28:33;10.20;47.10
68719;DHT22;55696;52.138;5.444;2023-02-28T11:31:02;10.30;47.90
68719;DHT22;55696;52.138;5.444;2023-02-28T11:33:50;10.50;45.60
68719;DHT22;55696;52.138;5.444;2023-02-28T11:36:21;10.60;47.50
68719;DHT22;55696;52.138;5.444;2023-02-28T11:38:53;10.60;44.80
68719;DHT22;55696;52.138;5.444;2023-02-28T11:46:51;10.50;46.90
68719;DHT22;55696;52.138;5.444;2023-02-28T11:57:33;10.40;46.90
68719;DHT22;55696;52.138;5.444;2023-02-28T12:02:59;10.40;46.80
68719;DHT22;55696;52.138;5.444;2023-02-28T12:05:38;10.40;47.30
68719;DHT22;55696;52.138;5.444;2023-02-28T12:08:26;10.50;46.60
68719;DHT22;55696;52.138;5.444;2023-02-28T12:11:13;10.50;46.90
68719;DHT22;55696;52.138;5.444;2023-02-28T12:14:05;10.90;46.30
68719;DHT22;55696;52.138;5.444;2023-02-28T12:27:51;11.30;45.50
68719;DHT22;55696;52.138;5.444;2023-02-28T12:30:24;11.20;44.50
68719;DHT22;55696;52.138;5.444;2023-02-28T12:33:01;11.30;44.90
68719;DHT22;55696;52.138;5.444;2023-02-28T12:35:36;11.30;45.20
68719;DHT22;55696;52.138;5.444;2023-02-28T12:38:22;11.40;45.20
68719;DHT22;55696;52.138;5.444;2023-02-28T12:41:00;11.60;44.40
68719;DHT22;55696;52.138;5.444;2023-02-28T12:43:37;11.60;43.60
68719;DHT22;55696;52.138;5.444;2023-02-28T12:46:08;11.60;43.60
68719;DHT22;55696;52.138;5.444;2023-02-28T12:48:57;11.60;43.70
68719;DHT22;55696;52.138;5.444;2023-02-28T12:51:26;11.70;44.40
68719;DHT22;55696;52.138;5.444;2023-02-28T12:59:41;12.10;40.50
68719;DHT22;55696;52.138;5.444;2023-02-28T13:02:45;12.40;43.00
68719;DHT22;55696;52.138;5.444;2023-02-28T13:10:13;12.70;41.30
68719;DHT22;55696;52.138;5.444;2023-02-28T13:12:50;12.60;40.20
68719;DHT22;55696;52.138;5.444;2023-02-28T13:15:27;12.50;42.10
68719;DHT22;55696;52.138;5.444;2023-02-28T13:17:58;12.70;41.00
68719;DHT22;55696;52.138;5.444;2023-02-28T13:20:29;12.60;41.10
68719;DHT22;55696;52.138;5.444;2023-02-28T13:22:57;12.70;41.00
68719;DHT22;55696;52.138;5.444;2023-02-28T13:28:01;13.30;42.30
68719;DHT22;55696;52.138;5.444;2023-02-28T13:38:54;13.00;40.60
68719;DHT22;55696;52.138;5.444;2023-02-28T13:49:29;13.50;40.00
68719;DHT22;55696;52.138;5.444;2023-02-28T13:54:56;14.60;39.70
68719;DHT22;55696;52.138;5.444;2023-02-28T13:57:32;14.00;39.60
68719;DHT22;55696;52.138;5.444;2023-02-28T14:00:28;14.30;36.10
68719;DHT22;55696;52.138;5.444;2023-02-28T14:06:28;14.30;38.30
68719;DHT22;55696;52.138;5.444;2023-02-28T14:09:03;14.30;37.60
68719;DHT22;55696;52.138;5.444;2023-02-28T14:11:40;14.30;36.90
68719;DHT22;55696;52.138;5.444;2023-02-28T14:14:09;14.10;37.90
68719;DHT22;55696;52.138;5.444;2023-02-28T14:16:46;14.00;37.10
68719;DHT22;55696;52.138;5.444;2023-02-28T14:19:25;14.10;37.40
68719;DHT22;55696;52.138;5.444;2023-02-28T14:22:26;13.80;37.10
68719;DHT22;55696;52.138;5.444;2023-02-28T14:25:08;13.60;38.60
68719;DHT22;55696;52.138;5.444;2023-02-28T14:31:01;13.50;37.50
68719;DHT22;55696;52.138;5.444;2023-02-28T14:38:44;13.40;35.90
68719;DHT22;55696;52.138;5.444;2023-02-28T14:41:24;13.40;36.70
68719;DHT22;55696;52.138;5.444;2023-02-28T14:43:56;13.60;37.80
68719;DHT22;55696;52.138;5.444;2023-02-28T14:46:45;13.50;37.80
68719;DHT22;55696;52.138;5.444;2023-02-28T14:49:19;13.60;37.70
68719;DHT22;55696;52.138;5.444;2023-02-28T14:51:50;13.70;38.20
68719;DHT22;55696;52.138;5.444;2023-02-28T14:54:20;14.20;37.90
68719;DHT22;55696;52.138;5.444;2023-02-28T14:56:50;13.70;37.80
68719;DHT22;55696;52.138;5.444;2023-02-28T14:59:29;13.80;35.90
68719;DHT22;55696;52.138;5.444;2023-02-28T15:02:16;13.80;36.90
68719;DHT22;55696;52.138;5.444;2023-02-28T15:04:52;13.60;38.60
68719;DHT22;55696;52.138;5.444;2023-02-28T15:07:20;14.50;38.90
68719;DHT22;55696;52.138;5.444;2023-02-28T15:10:14;13.50;36.40
68719;DHT22;55696;52.138;5.444;2023-02-28T15:12:47;13.50;38.30
68719;DHT22;55696;52.138;5.444;2023-02-28T15:15:16;13.20;37.10
68719;DHT22;55696;52.138;5.444;2023-02-28T15:17:53;13.20;37.00
68719;DHT22;55696;52.138;5.444;2023-02-28T15:20:23;13.00;38.40
68719;DHT22;55696;52.138;5.444;2023-02-28T15:22:52;13.00;37.60
68719;DHT22;55696;52.138;5.444;2023-02-28T15:25:22;13.00;37.50
68719;DHT22;55696;52.138;5.444;2023-02-28T15:27:51;14.00;37.50
68719;DHT22;55696;52.138;5.444;2023-02-28T15:30:29;13.20;37.60
68719;DHT22;55696;52.138;5.444;2023-02-28T15:33:19;13.50;37.90
68719;DHT22;55696;52.138;5.444;2023-02-28T15:35:46;13.50;39.50
68719;DHT22;55696;52.138;5.444;2023-02-28T15:40:49;13.40;37.70
68719;DHT22;55696;52.138;5.444;2023-02-28T15:43:32;13.40;37.30
68719;DHT22;55696;52.138;5.444;2023-02-28T15:46:03;13.50;37.50
68719;DHT22;55696;52.138;5.444;2023-02-28T15:48:35;13.40;37.60
68719;DHT22;55696;52.138;5.444;2023-02-28T15:51:16;13.30;37.30
68719;DHT22;55696;52.138;5.444;2023-02-28T15:53:50;13.30;37.10
68719;DHT22;55696;52.138;5.444;2023-02-28T15:56:38;13.70;37.70
68719;DHT22;55696;52.138;5.444;2023-02-28T15:59:07;13.20;37.80
68719;DHT22;55696;52.138;5.444;2023-02-28T16:01:37;13.10;36.50
68719;DHT22;55696;52.138;5.444;2023-02-28T16:04:18;13.00;36.70
68719;DHT22;55696;52.138;5.444;2023-02-28T16:07:04;12.90;37.10
68719;DHT22;55696;52.138;5.444;2023-02-28T16:09:31;12.90;38.00
68719;DHT22;55696;52.138;5.444;2023-02-28T16:12:02;12.60;36.60
68719;DHT22;55696;52.138;5.444;2023-02-28T16:14:30;12.50;37.40
68719;DHT22;55696;52.138;5.444;2023-02-28T16:17:06;12.10;37.70
68719;DHT22;55696;52.138;5.444;2023-02-28T16:19:35;12.00;38.70
68719;DHT22;55696;52.138;5.444;2023-02-28T16:22:02;11.80;37.60
68719;DHT22;55696;52.138;5.444;2023-02-28T16:24:28;11.60;37.80
68719;DHT22;55696;52.138;5.444;2023-02-28T16:26:57;11.50;38.20
68719;DHT22;55696;52.138;5.444;2023-02-28T16:29:28;11.40;40.40
68719;DHT22;55696;52.138;5.444;2023-02-28T16:31:56;11.40;40.60
68719;DHT22;55696;52.138;5.444;2023-02-28T16:34:24;11.10;39.50
68719;DHT22;55696;52.138;5.444;2023-02-28T16:36:51;10.90;40.00
68719;DHT22;55696;52.138;5.444;2023-02-28T16:39:18;10.90;39.70
68719;DHT22;55696;52.138;5.444;2023-02-28T16:41:48;10.90;40.10
68719;DHT22;55696;52.138;5.444;2023-02-28T16:44:34;10.60;41.30
68719;DHT22;55696;52.138;5.444;2023-02-28T16:47:02;10.60;42.70
68719;DHT22;55696;52.138;5.444;2023-02-28T16:49:29;10.50;42.10
68719;DHT22;55696;52.138;5.444;2023-02-28T16:51:56;10.50;41.80
68719;DHT22;55696;52.138;5.444;2023-02-28T16:54:23;10.30;41.70
68719;DHT22;55696;52.138;5.444;2023-02-28T16:56:50;10.40;42.00
68719;DHT22;55696;52.138;5.444;2023-02-28T16:59:23;10.20;42.10
68719;DHT22;55696;52.138;5.444;2023-02-28T17:01:51;10.20;44.50
68719;DHT22;55696;52.138;5.444;2023-02-28T17:04:18;10.00;42.90
68719;DHT22;55696;52.138;5.444;2023-02-28T17:06:45;10.00;42.70
68719;DHT22;55696;52.138;5.444;2023-02-28T17:09:30;9.90;43.00
68719;DHT22;55696;52.138;5.444;2023-02-28T17:12:09;9.80;45.60
68719;DHT22;55696;52.138;5.444;2023-02-28T17:14:37;9.80;44.20
68719;DHT22;55696;52.138;5.444;2023-02-28T17:17:05;9.60;43.90
68719;DHT22;55696;52.138;5.444;2023-02-28T17:19:32;9.50;44.80
68719;DHT22;55696;52.138;5.444;2023-02-28T17:22:00;9.50;44.00
68719;DHT22;55696;52.138;5.444;2023-02-28T17:24:27;10.20;44.50
68719;DHT22;55696;52.138;5.444;2023-02-28T17:26:57;9.40;44.20
68719;DHT22;55696;52.138;5.444;2023-02-28T17:29:24;9.30;44.80
68719;DHT22;55696;52.138;5.444;2023-02-28T17:31:51;9.40;44.90
68719;DHT22;55696;52.138;5.444;2023-02-28T17:34:18;9.30;44.80
68719;DHT22;55696;52.138;5.444;2023-02-28T17:36:48;9.30;45.00
68719;DHT22;55696;52.138;5.444;2023-02-28T17:39:16;9.20;46.30
68719;DHT22;55696;52.138;5.444;2023-02-28T17:41:54;9.20;46.60
68719;DHT22;55696;52.138;5.444;2023-02-28T17:44:22;9.00;47.90
68719;DHT22;55696;52.138;5.444;2023-02-28T17:46:51;8.90;46.80
68719;DHT22;55696;52.138;5.444;2023-02-28T17:49:18;8.70;47.00
68719;DHT22;55696;52.138;5.444;2023-02-28T17:51:46;8.60;47.40
68719;DHT22;55696;52.138;5.444;2023-02-28T17:54:13;8.50;48.20
68719;DHT22;55696;52.138;5.444;2023-02-28T17:56:40;8.30;48.90
68719;DHT22;55696;52.138;5.444;2023-02-28T17:59:10;8.10;49.30
68719;DHT22;55696;52.138;5.444;2023-02-28T18:01:37;8.00;50.20
68719;DHT22;55696;52.138;5.444;2023-02-28T18:04:04;7.90;49.90
68719;DHT22;55696;52.138;5.444;2023-02-28T18:06:39;7.70;50.20
68719;DHT22;55696;52.138;5.444;2023-02-28T18:09:23;7.60;51.60
68719;DHT22;55696;52.138;5.444;2023-02-28T18:11:51;7.60;53.00
68719;DHT22;55696;52.138;5.444;2023-02-28T18:14:22;7.50;51.70
68719;DHT22;55696;52.138;5.444;2023-02-28T18:16:51;7.60;52.60
68719;DHT22;55696;52.138;5.444;2023-02-28T18:19:18;7.50;51.70
68719;DHT22;55696;52.138;5.444;2023-02-28T18:21:51;7.50;51.70
68719;DHT22;55696;52.138;5.444;2023-02-28T18:24:20;7.40;53.40
68719;DHT22;55696;52.138;5.444;2023-02-28T18:26:47;7.40;52.20
68719;DHT22;55696;52.138;5.444;2023-02-28T18:29:32;7.30;51.30